(°C)
-5°
-5°
-4°
-4°
-3°
-3°
-3°
(°C)
-12°
-12°
-11°
-11°
-10°
-10°
-10°
ENE
ENE
ENE
ENE
ENE
ENE
ENE
(km/h)
23-37
23-37
22-35
22-35
22-35
22-35
22-34
(mm)
0
0
0
0
0
0
0
(%)
1
1
1
1
1
1
1

Elevación del sol

/ 10.8°
sun-icon
UV 0
08:51
16:44
Creciente (71°)
13:26
22:41

METAR a 52.53°N 31.02°E (UMGG)

Hora Condiciones Temperatura/
Punto de condensación
Viento Visibilidad Tiempo Nubes Presión Cambiar Bruto
IFR -5°C / -6°C 60º 12kt >10km - Broken Clouds 800ft
Overcast 3000ft
1018 No Significant change UMGG 090730Z 06006MPS 9999 BKN008 OVC030CB M05/M06 Q1018 NOSIG
VFR -5°C / -6°C 70º 14kt >10km - Scattered Clouds 900ft
Overcast 3100ft
1017 No Significant change UMGG 090700Z 07007MPS 9999 SCT009 OVC031CB M05/M06 Q1017 NOSIG
VFR -5°C / -6°C 50º 14kt >10km - Few Clouds 900ft
Overcast 3200ft
1017 No Significant change UMGG 090630Z 05007MPS 9999 FEW009 OVC032CB M05/M06 Q1017 NOSIG
MVFR -5°C / -6°C 50º 14kt >10km - Scattered Clouds 1200ft
Overcast 2400ft
1017 No Significant change UMGG 090600Z 05007MPS 9999 SCT012 OVC024CB M05/M06 Q1017 NOSIG
MVFR -5°C / -6°C 50º 10kt Gust 16kt >10km - Overcast 1000ft 1017 No Significant change UMGG 090530Z 05005G08MPS 9999 OVC010 M05/M06 Q1017 NOSIG
IFR -5°C / -6°C 40º 10kt Gust 16kt >10km - Overcast 900ft 1016 No Significant change UMGG 090500Z 04005G08MPS 9999 OVC009 M05/M06 Q1016 NOSIG
IFR -6°C / -6°C 40º 10kt Gust 16kt >10km - Overcast 900ft 1016 No Significant change UMGG 090430Z 04005G08MPS 9999 OVC009 M06/M06 Q1016 NOSIG
IFR -6°C / -6°C 50º 10kt Gust 16kt >10km - Overcast 800ft 1016 No Significant change UMGG 090400Z 05005G08MPS 9999 OVC008 M06/M06 Q1016 NOSIG
IFR -5°C / -6°C 40º 10kt Gust 16kt >10km - Overcast 800ft 1016 No Significant change UMGG 090330Z 04005G08MPS 9999 OVC008 M05/M06 Q1016 NOSIG
IFR -5°C / -6°C 30º 10kt Gust 16kt >10km - Overcast 800ft 1016 No Significant change UMGG 090300Z 03005G08MPS 9999 OVC008 M05/M06 Q1016 NOSIG
IFR -5°C / -6°C 40º 12kt >10km - Broken Clouds 900ft
Overcast 2000ft
1015 No Significant change UMGG 090200Z 04006MPS 9999 BKN009 OVC020 M05/M06 Q1015 NOSIG
IFR -5°C / -6°C 30º 12kt >10km - Overcast 800ft 1015 No Significant change UMGG 090100Z 03006MPS 9999 OVC008 M05/M06 Q1015 NOSIG
IFR -5°C / -6°C 40º 12kt >10km Light Snow 1.00mm precipitation Vertical Visibility of 0ft. 1015 No Significant change UMGG 090000Z 04006MPS 9999 -SN OVC008 M05/M06 Q1015 NOSIG
MVFR -5°C / -6°C 30º 12kt >10km Light Snow 1.00mm precipitation Vertical Visibility of 0ft. 1015 No Significant change UMGG 082300Z 03006MPS 9999 -SN OVC011 M05/M06 Q1015 NOSIG
MVFR -5°C / -6°C 30º 12kt 5000m Light Snow 1.00mm precipitation Vertical Visibility of 0ft.
Overcast 1500ft
1015 No Significant change UMGG 082200Z 03006MPS 5000 -SN BKN010 OVC015 M05/M06 Q1015 NOSIG
MVFR -5°C / -6°C 30º 12kt Gust 17kt 6000m Light Snow 1.00mm precipitation Vertical Visibility of 0ft. 1015 No Significant change UMGG 082141Z 03006G09MPS 6000 -SN OVC011 M05/M06 Q1015 REFZRA NOSIG
MVFR -5°C / -6°C 30º 14kt >10km Light freezing Rain 3.00mm precipitation Vertical Visibility of 0ft. 1015 No Significant change UMGG 082100Z 03007MPS 9999 -FZRA OVC011 M05/M06 Q1015 NOSIG
MVFR -6°C / -7°C 30º 12kt >10km Light Snow 1.00mm precipitation Vertical Visibility of 0ft. 1015 No Significant change UMGG 082000Z 03006MPS 9999 -SN OVC010 M06/M07 Q1015 NOSIG
MVFR -5°C / -6°C 30º 12kt >10km - Overcast 1000ft 1015 No Significant change UMGG 081900Z 03006MPS 9999 OVC010 M05/M06 Q1015 REFZRA NOSIG
MVFR -6°C / -7°C 40º 12kt >10km Light freezing Rain 3.00mm precipitation Vertical Visibility of 0ft.
Overcast 3300ft
1015 No Significant change UMGG 081800Z 04006MPS 9999 -FZRA BKN011 OVC033 M06/M07 Q1015 NOSIG
MVFR -6°C / -7°C 30º 14kt 7000m Light freezing Rain 3.00mm precipitation Vertical Visibility of 0ft.
Overcast 2800ft
1015 No Significant change UMGG 081730Z 03007MPS 7000 -FZRA BKN011 OVC028 M06/M07 Q1015 NOSIG
MVFR -6°C / -7°C 30º 14kt 8000m Light Snow 1.00mm precipitation Vertical Visibility of 0ft.
Overcast 2600ft
1015 No Significant change UMGG 081700Z 03007MPS 8000 -SN BKN011 OVC026 M06/M07 Q1015 NOSIG
MVFR -6°C / -6°C 20º 14kt 6000m Light Snow 1.00mm precipitation Vertical Visibility of 0ft. 1015 No Significant change UMGG 081630Z 02007MPS 6000 -SN OVC010 M06/M06 Q1015 NOSIG
IFR -6°C / -6°C 20º 14kt 9000m Light Snow 1.00mm precipitation Vertical Visibility of 0ft. 1015 No Significant change UMGG 081600Z 02007MPS 9000 -SN OVC009 M06/M06 Q1015 NOSIG

IFR

-5°C / -6°C

[Más]
Viento 60º 12kt
Visibilidad >10km
Tiempo -
Nubes Broken Clouds 800ft
Overcast 3000ft
Presión 1018
Cambiar No Significant change
Bruto UMGG 090730Z 06006MPS 9999 BKN008 OVC030CB M05/M06 Q1018 NOSIG

VFR

-5°C / -6°C

[Más]
Viento 70º 14kt
Visibilidad >10km
Tiempo -
Nubes Scattered Clouds 900ft
Overcast 3100ft
Presión 1017
Cambiar No Significant change
Bruto UMGG 090700Z 07007MPS 9999 SCT009 OVC031CB M05/M06 Q1017 NOSIG

VFR

-5°C / -6°C

[Más]
Viento 50º 14kt
Visibilidad >10km
Tiempo -
Nubes Few Clouds 900ft
Overcast 3200ft
Presión 1017
Cambiar No Significant change
Bruto UMGG 090630Z 05007MPS 9999 FEW009 OVC032CB M05/M06 Q1017 NOSIG

MVFR

-5°C / -6°C

[Más]
Viento 50º 14kt
Visibilidad >10km
Tiempo -
Nubes Scattered Clouds 1200ft
Overcast 2400ft
Presión 1017
Cambiar No Significant change
Bruto UMGG 090600Z 05007MPS 9999 SCT012 OVC024CB M05/M06 Q1017 NOSIG

MVFR

-5°C / -6°C

[Más]
Viento 50º 10kt Gust 16kt
Visibilidad >10km
Tiempo -
Nubes Overcast 1000ft
Presión 1017
Cambiar No Significant change
Bruto UMGG 090530Z 05005G08MPS 9999 OVC010 M05/M06 Q1017 NOSIG

IFR

-5°C / -6°C

[Más]
Viento 40º 10kt Gust 16kt
Visibilidad >10km
Tiempo -
Nubes Overcast 900ft
Presión 1016
Cambiar No Significant change
Bruto UMGG 090500Z 04005G08MPS 9999 OVC009 M05/M06 Q1016 NOSIG

IFR

-6°C / -6°C

[Más]
Viento 40º 10kt Gust 16kt
Visibilidad >10km
Tiempo -
Nubes Overcast 900ft
Presión 1016
Cambiar No Significant change
Bruto UMGG 090430Z 04005G08MPS 9999 OVC009 M06/M06 Q1016 NOSIG

IFR

-6°C / -6°C

[Más]
Viento 50º 10kt Gust 16kt
Visibilidad >10km
Tiempo -
Nubes Overcast 800ft
Presión 1016
Cambiar No Significant change
Bruto UMGG 090400Z 05005G08MPS 9999 OVC008 M06/M06 Q1016 NOSIG

IFR

-5°C / -6°C

[Más]
Viento 40º 10kt Gust 16kt
Visibilidad >10km
Tiempo -
Nubes Overcast 800ft
Presión 1016
Cambiar No Significant change
Bruto UMGG 090330Z 04005G08MPS 9999 OVC008 M05/M06 Q1016 NOSIG

IFR

-5°C / -6°C

[Más]
Viento 30º 10kt Gust 16kt
Visibilidad >10km
Tiempo -
Nubes Overcast 800ft
Presión 1016
Cambiar No Significant change
Bruto UMGG 090300Z 03005G08MPS 9999 OVC008 M05/M06 Q1016 NOSIG

IFR

-5°C / -6°C

[Más]
Viento 40º 12kt
Visibilidad >10km
Tiempo -
Nubes Broken Clouds 900ft
Overcast 2000ft
Presión 1015
Cambiar No Significant change
Bruto UMGG 090200Z 04006MPS 9999 BKN009 OVC020 M05/M06 Q1015 NOSIG

IFR

-5°C / -6°C

[Más]
Viento 30º 12kt
Visibilidad >10km
Tiempo -
Nubes Overcast 800ft
Presión 1015
Cambiar No Significant change
Bruto UMGG 090100Z 03006MPS 9999 OVC008 M05/M06 Q1015 NOSIG

IFR

-5°C / -6°C

[Más]
Viento 40º 12kt
Visibilidad >10km
Tiempo Light Snow 1.00mm precipitation
Nubes Vertical Visibility of 0ft.
Presión 1015
Cambiar No Significant change
Bruto UMGG 090000Z 04006MPS 9999 -SN OVC008 M05/M06 Q1015 NOSIG

MVFR

-5°C / -6°C

[Más]
Viento 30º 12kt
Visibilidad >10km
Tiempo Light Snow 1.00mm precipitation
Nubes Vertical Visibility of 0ft.
Presión 1015
Cambiar No Significant change
Bruto UMGG 082300Z 03006MPS 9999 -SN OVC011 M05/M06 Q1015 NOSIG

MVFR

-5°C / -6°C

[Más]
Viento 30º 12kt
Visibilidad 5000m
Tiempo Light Snow 1.00mm precipitation
Nubes Vertical Visibility of 0ft.
Overcast 1500ft
Presión 1015
Cambiar No Significant change
Bruto UMGG 082200Z 03006MPS 5000 -SN BKN010 OVC015 M05/M06 Q1015 NOSIG

MVFR

-5°C / -6°C

[Más]
Viento 30º 12kt Gust 17kt
Visibilidad 6000m
Tiempo Light Snow 1.00mm precipitation
Nubes Vertical Visibility of 0ft.
Presión 1015
Cambiar No Significant change
Bruto UMGG 082141Z 03006G09MPS 6000 -SN OVC011 M05/M06 Q1015 REFZRA NOSIG

MVFR

-5°C / -6°C

[Más]
Viento 30º 14kt
Visibilidad >10km
Tiempo Light freezing Rain 3.00mm precipitation
Nubes Vertical Visibility of 0ft.
Presión 1015
Cambiar No Significant change
Bruto UMGG 082100Z 03007MPS 9999 -FZRA OVC011 M05/M06 Q1015 NOSIG

MVFR

-6°C / -7°C

[Más]
Viento 30º 12kt
Visibilidad >10km
Tiempo Light Snow 1.00mm precipitation
Nubes Vertical Visibility of 0ft.
Presión 1015
Cambiar No Significant change
Bruto UMGG 082000Z 03006MPS 9999 -SN OVC010 M06/M07 Q1015 NOSIG

MVFR

-5°C / -6°C

[Más]
Viento 30º 12kt
Visibilidad >10km
Tiempo -
Nubes Overcast 1000ft
Presión 1015
Cambiar No Significant change
Bruto UMGG 081900Z 03006MPS 9999 OVC010 M05/M06 Q1015 REFZRA NOSIG

MVFR

-6°C / -7°C

[Más]
Viento 40º 12kt
Visibilidad >10km
Tiempo Light freezing Rain 3.00mm precipitation
Nubes Vertical Visibility of 0ft.
Overcast 3300ft
Presión 1015
Cambiar No Significant change
Bruto UMGG 081800Z 04006MPS 9999 -FZRA BKN011 OVC033 M06/M07 Q1015 NOSIG

MVFR

-6°C / -7°C

[Más]
Viento 30º 14kt
Visibilidad 7000m
Tiempo Light freezing Rain 3.00mm precipitation
Nubes Vertical Visibility of 0ft.
Overcast 2800ft
Presión 1015
Cambiar No Significant change
Bruto UMGG 081730Z 03007MPS 7000 -FZRA BKN011 OVC028 M06/M07 Q1015 NOSIG

MVFR

-6°C / -7°C

[Más]
Viento 30º 14kt
Visibilidad 8000m
Tiempo Light Snow 1.00mm precipitation
Nubes Vertical Visibility of 0ft.
Overcast 2600ft
Presión 1015
Cambiar No Significant change
Bruto UMGG 081700Z 03007MPS 8000 -SN BKN011 OVC026 M06/M07 Q1015 NOSIG

MVFR

-6°C / -6°C

[Más]
Viento 20º 14kt
Visibilidad 6000m
Tiempo Light Snow 1.00mm precipitation
Nubes Vertical Visibility of 0ft.
Presión 1015
Cambiar No Significant change
Bruto UMGG 081630Z 02007MPS 6000 -SN OVC010 M06/M06 Q1015 NOSIG

IFR

-6°C / -6°C

[Más]
Viento 20º 14kt
Visibilidad 9000m
Tiempo Light Snow 1.00mm precipitation
Nubes Vertical Visibility of 0ft.
Presión 1015
Cambiar No Significant change
Bruto UMGG 081600Z 02007MPS 9000 -SN OVC009 M06/M06 Q1015 NOSIG

TAF a 52.53°N 31.02°E (UMGG)

From till


From till Wind 50º 12kt. Visibility 5000m. Mist . Broken Clouds 700ft.
Temporarly from till Wind 50º 14kt. Gust 23kt. Broken Clouds 400ft. Broken Clouds 1300ft.
Temporarly from till Wind 60º 12kt. Gust 21kt. Visibility 2100m. Light Showers Snow blowing Snow . Broken Clouds 500ft. Broken Clouds 1500ft.
Temporarly from till Wind 60º 12kt. Gust 21kt. Visibility 1200m. freezing Drizzle . Broken Clouds 400ft. Broken Clouds 1300ft.
From till Wind 80º 14kt. Visibility 3000m. Mist . Broken Clouds 400ft.
Temporarly from till Wind 100º 14kt. Visibility 1200m. Broken Clouds 300ft.

Bruto: TAF AMD UMGG 090617Z 0906/1006 05006MPS 5000 BR BKN007 TEMPO 0906/0909 05007G12MPS BKN004 BKN013CB TEMPO 0909/0914 06006G11MPS 2100 -SHSN BLSN BKN005 BKN015CB TEMPO 0914/0918 06006G11MPS 1200 FZDZ BKN004 BKN013CB FM091800 08007MPS 3000 BR BKN004 TEMPO 0921/1006 10007MPS 1200 BKN003

Radar y precipitación nowcast para 52.53°N 31.02°E

llovizna
Leve
Moderado
Fuerte
Muy fuerte
Granizo

El marcador de lugar se coloca en 52.53°N 31.02°E. Esta animación muestra lo radar de precipitaciones hasta la última hora, así como la 1h previsión. Las lloviznas o las nevadas ligeras pueden ser invisibles para el radar. La intensidad de la precipitación está codificada por colores, que van del azul claro al naranja.

Imágenes actuales de satélite y lluvia para 52.53°N 31.02°E

El marcador de lugar se coloca en 52.53°N 31.02°E. [Más]

La imagen de satélite en tiempo real se aprovecha de la combinación de bandas de la luz visible y de la luz infrarrojo. Como se puede detectar cambios de temperaturas atreves de la banda infrarrojo, la imagen no está escura de noche. No obstante, la niebla y las nubes bajas son apenas visibles en las imágenes infrarrojo como las diferencias de temperaturas entre el suelo y la niebla son muy pequeñas. Por eso son casi invisibles durante la noche. Las imágenes de satélite del Meteosat (Europa) son actualizados en tiempo real cada 5 minutos. Las imágenes del GOES-16/GOES-17 (América del Norte y América del Sur) y Himawari (Asia) son actualizados cada 10 minutos.

Copyright 2021 EUMETSAT / meteoblue. / Copyright 2021 meteoblue